sensor_id;sensor_type;location;lat;lon;timestamp;P1;durP1;ratioP1;P2;durP2;ratioP2
66093;SDS011;52876;49.394;10.892;2023-02-15T00:02:14;213.97;;;42.07;;
66093;SDS011;52876;49.394;10.892;2023-02-15T00:04:40;200.60;;;41.70;;
66093;SDS011;52876;49.394;10.892;2023-02-15T00:07:07;177.90;;;33.43;;
66093;SDS011;52876;49.394;10.892;2023-02-15T00:09:33;242.43;;;42.37;;
66093;SDS011;52876;49.394;10.892;2023-02-15T00:12:01;299.97;;;39.03;;
66093;SDS011;52876;49.394;10.892;2023-02-15T00:14:26;301.27;;;43.73;;
66093;SDS011;52876;49.394;10.892;2023-02-15T00:16:52;219.33;;;38.07;;
66093;SDS011;52876;49.394;10.892;2023-02-15T00:19:19;196.93;;;37.70;;
66093;SDS011;52876;49.394;10.892;2023-02-15T00:21:47;174.10;;;36.03;;
66093;SDS011;52876;49.394;10.892;2023-02-15T00:24:14;132.77;;;33.03;;
66093;SDS011;52876;49.394;10.892;2023-02-15T00:26:42;217.30;;;37.50;;
66093;SDS011;52876;49.394;10.892;2023-02-15T00:29:11;182.50;;;38.80;;
66093;SDS011;52876;49.394;10.892;2023-02-15T00:31:39;193.20;;;32.97;;
66093;SDS011;52876;49.394;10.892;2023-02-15T00:34:06;196.63;;;33.73;;
66093;SDS011;52876;49.394;10.892;2023-02-15T00:36:36;203.23;;;28.90;;
66093;SDS011;52876;49.394;10.892;2023-02-15T00:39:02;252.73;;;35.10;;
66093;SDS011;52876;49.394;10.892;2023-02-15T00:41:28;210.90;;;34.17;;
66093;SDS011;52876;49.394;10.892;2023-02-15T00:43:54;249.67;;;39.77;;
66093;SDS011;52876;49.394;10.892;2023-02-15T00:46:21;170.47;;;33.10;;
66093;SDS011;52876;49.394;10.892;2023-02-15T00:48:47;222.87;;;36.30;;
66093;SDS011;52876;49.394;10.892;2023-02-15T00:51:13;185.50;;;33.97;;
66093;SDS011;52876;49.394;10.892;2023-02-15T00:53:39;192.97;;;35.90;;
66093;SDS011;52876;49.394;10.892;2023-02-15T00:56:05;182.87;;;32.43;;
66093;SDS011;52876;49.394;10.892;2023-02-15T00:58:31;179.03;;;33.60;;
66093;SDS011;52876;49.394;10.892;2023-02-15T01:01:02;183.00;;;35.60;;
66093;SDS011;52876;49.394;10.892;2023-02-15T01:03:30;173.33;;;34.83;;
66093;SDS011;52876;49.394;10.892;2023-02-15T01:05:58;153.63;;;31.60;;
66093;SDS011;52876;49.394;10.892;2023-02-15T01:08:24;175.13;;;31.33;;
66093;SDS011;52876;49.394;10.892;2023-02-15T01:10:50;135.10;;;31.53;;
66093;SDS011;52876;49.394;10.892;2023-02-15T01:13:16;58.17;;;22.20;;
66093;SDS011;52876;49.394;10.892;2023-02-15T01:15:44;222.20;;;36.50;;
66093;SDS011;52876;49.394;10.892;2023-02-15T01:18:10;122.73;;;30.33;;
66093;SDS011;52876;49.394;10.892;2023-02-15T01:20:39;118.77;;;29.00;;
66093;SDS011;52876;49.394;10.892;2023-02-15T01:23:05;180.73;;;34.17;;
66093;SDS011;52876;49.394;10.892;2023-02-15T01:25:32;157.87;;;32.53;;
66093;SDS011;52876;49.394;10.892;2023-02-15T01:27:58;155.63;;;33.43;;
66093;SDS011;52876;49.394;10.892;2023-02-15T01:30:26;215.73;;;34.40;;
66093;SDS011;52876;49.394;10.892;2023-02-15T01:32:52;153.10;;;31.27;;
66093;SDS011;52876;49.394;10.892;2023-02-15T01:35:19;231.83;;;35.57;;
66093;SDS011;52876;49.394;10.892;2023-02-15T01:37:48;119.40;;;31.20;;
66093;SDS011;52876;49.394;10.892;2023-02-15T01:40:15;126.83;;;29.90;;
66093;SDS011;52876;49.394;10.892;2023-02-15T01:42:44;96.17;;;31.60;;
66093;SDS011;52876;49.394;10.892;2023-02-15T01:45:14;142.33;;;31.50;;
66093;SDS011;52876;49.394;10.892;2023-02-15T01:47:47;230.47;;;33.30;;
66093;SDS011;52876;49.394;10.892;2023-02-15T01:50:18;208.93;;;33.63;;
66093;SDS011;52876;49.394;10.892;2023-02-15T01:52:50;127.60;;;28.13;;
66093;SDS011;52876;49.394;10.892;2023-02-15T01:55:19;169.47;;;33.07;;
66093;SDS011;52876;49.394;10.892;2023-02-15T01:57:48;122.97;;;29.63;;
66093;SDS011;52876;49.394;10.892;2023-02-15T02:00:16;100.03;;;27.73;;
66093;SDS011;52876;49.394;10.892;2023-02-15T02:02:45;143.90;;;33.30;;
66093;SDS011;52876;49.394;10.892;2023-02-15T02:05:14;161.70;;;32.57;;
66093;SDS011;52876;49.394;10.892;2023-02-15T02:07:43;195.23;;;34.33;;
66093;SDS011;52876;49.394;10.892;2023-02-15T02:10:13;213.83;;;32.97;;
66093;SDS011;52876;49.394;10.892;2023-02-15T02:12:43;228.97;;;37.93;;
66093;SDS011;52876;49.394;10.892;2023-02-15T02:15:11;150.33;;;31.17;;
66093;SDS011;52876;49.394;10.892;2023-02-15T02:17:42;143.13;;;29.43;;
66093;SDS011;52876;49.394;10.892;2023-02-15T02:20:34;96.60;;;28.37;;
66093;SDS011;52876;49.394;10.892;2023-02-15T02:23:24;117.00;;;28.93;;
66093;SDS011;52876;49.394;10.892;2023-02-15T02:26:05;92.57;;;25.47;;
66093;SDS011;52876;49.394;10.892;2023-02-15T02:29:03;131.20;;;28.80;;
66093;SDS011;52876;49.394;10.892;2023-02-15T02:31:58;139.97;;;33.30;;
66093;SDS011;52876;49.394;10.892;2023-02-15T02:34:49;143.40;;;29.13;;
66093;SDS011;52876;49.394;10.892;2023-02-15T02:37:22;115.70;;;29.20;;
66093;SDS011;52876;49.394;10.892;2023-02-15T02:39:55;118.67;;;30.47;;
66093;SDS011;52876;49.394;10.892;2023-02-15T02:42:25;132.27;;;30.40;;
66093;SDS011;52876;49.394;10.892;2023-02-15T02:45:00;158.83;;;33.47;;
66093;SDS011;52876;49.394;10.892;2023-02-15T02:47:32;93.73;;;26.93;;
66093;SDS011;52876;49.394;10.892;2023-02-15T02:50:05;89.87;;;27.10;;
66093;SDS011;52876;49.394;10.892;2023-02-15T02:52:35;61.60;;;25.00;;
66093;SDS011;52876;49.394;10.892;2023-02-15T02:55:03;110.70;;;30.03;;
66093;SDS011;52876;49.394;10.892;2023-02-15T02:57:32;115.90;;;32.73;;
66093;SDS011;52876;49.394;10.892;2023-02-15T02:59:58;99.83;;;30.80;;
66093;SDS011;52876;49.394;10.892;2023-02-15T03:02:29;130.53;;;32.33;;
66093;SDS011;52876;49.394;10.892;2023-02-15T03:05:00;119.65;;;30.55;;
66093;SDS011;52876;49.394;10.892;2023-02-15T03:07:31;43.63;;;22.03;;
66093;SDS011;52876;49.394;10.892;2023-02-15T03:09:59;126.20;;;32.40;;
66093;SDS011;52876;49.394;10.892;2023-02-15T03:12:30;93.00;;;27.20;;
66093;SDS011;52876;49.394;10.892;2023-02-15T03:15:00;104.47;;;28.03;;
66093;SDS011;52876;49.394;10.892;2023-02-15T03:17:30;160.23;;;31.77;;
66093;SDS011;52876;49.394;10.892;2023-02-15T03:20:00;111.00;;;28.77;;
66093;SDS011;52876;49.394;10.892;2023-02-15T03:22:33;111.88;;;26.45;;
66093;SDS011;52876;49.394;10.892;2023-02-15T03:25:02;86.70;;;23.20;;
66093;SDS011;52876;49.394;10.892;2023-02-15T03:27:35;61.43;;;21.97;;
66093;SDS011;52876;49.394;10.892;2023-02-15T03:30:06;73.50;;;23.70;;
66093;SDS011;52876;49.394;10.892;2023-02-15T03:32:35;117.33;;;25.13;;
66093;SDS011;52876;49.394;10.892;2023-02-15T03:35:04;184.40;;;28.13;;
66093;SDS011;52876;49.394;10.892;2023-02-15T03:37:35;109.70;;;26.53;;
66093;SDS011;52876;49.394;10.892;2023-02-15T03:40:06;183.65;;;31.77;;
66093;SDS011;52876;49.394;10.892;2023-02-15T03:42:37;183.68;;;33.60;;
66093;SDS011;52876;49.394;10.892;2023-02-15T03:45:05;265.10;;;41.60;;
66093;SDS011;52876;49.394;10.892;2023-02-15T03:47:33;90.83;;;30.43;;
66093;SDS011;52876;49.394;10.892;2023-02-15T03:50:00;151.27;;;34.28;;
66093;SDS011;52876;49.394;10.892;2023-02-15T03:52:29;118.35;;;31.77;;
66093;SDS011;52876;49.394;10.892;2023-02-15T03:54:58;129.73;;;33.75;;
66093;SDS011;52876;49.394;10.892;2023-02-15T03:57:25;123.05;;;33.67;;
66093;SDS011;52876;49.394;10.892;2023-02-15T03:59:52;112.20;;;33.23;;
66093;SDS011;52876;49.394;10.892;2023-02-15T04:02:20;128.73;;;32.07;;
66093;SDS011;52876;49.394;10.892;2023-02-15T04:04:48;116.40;;;30.00;;
66093;SDS011;52876;49.394;10.892;2023-02-15T04:07:16;62.60;;;23.73;;
66093;SDS011;52876;49.394;10.892;2023-02-15T04:09:42;85.40;;;29.40;;
66093;SDS011;52876;49.394;10.892;2023-02-15T04:12:09;73.63;;;27.60;;
66093;SDS011;52876;49.394;10.892;2023-02-15T04:14:35;107.83;;;30.73;;
66093;SDS011;52876;49.394;10.892;2023-02-15T04:17:02;66.23;;;23.67;;
66093;SDS011;52876;49.394;10.892;2023-02-15T04:19:30;51.87;;;23.43;;
66093;SDS011;52876;49.394;10.892;2023-02-15T04:21:57;157.20;;;32.60;;
66093;SDS011;52876;49.394;10.892;2023-02-15T04:24:23;82.77;;;26.00;;
66093;SDS011;52876;49.394;10.892;2023-02-15T04:26:51;124.20;;;32.87;;
66093;SDS011;52876;49.394;10.892;2023-02-15T04:29:19;120.03;;;25.53;;
66093;SDS011;52876;49.394;10.892;2023-02-15T04:31:46;78.80;;;25.77;;
66093;SDS011;52876;49.394;10.892;2023-02-15T04:34:12;104.87;;;28.77;;
66093;SDS011;52876;49.394;10.892;2023-02-15T04:36:38;78.63;;;28.53;;
66093;SDS011;52876;49.394;10.892;2023-02-15T04:39:05;65.93;;;23.57;;
66093;SDS011;52876;49.394;10.892;2023-02-15T04:41:33;60.17;;;23.60;;
66093;SDS011;52876;49.394;10.892;2023-02-15T04:43:59;98.80;;;28.23;;
66093;SDS011;52876;49.394;10.892;2023-02-15T04:46:27;140.30;;;31.03;;
66093;SDS011;52876;49.394;10.892;2023-02-15T04:48:53;144.93;;;32.50;;
66093;SDS011;52876;49.394;10.892;2023-02-15T04:51:19;86.00;;;28.70;;
66093;SDS011;52876;49.394;10.892;2023-02-15T04:53:45;145.27;;;34.83;;
66093;SDS011;52876;49.394;10.892;2023-02-15T04:56:11;91.33;;;27.97;;
66093;SDS011;52876;49.394;10.892;2023-02-15T04:58:37;154.82;;;30.42;;
66093;SDS011;52876;49.394;10.892;2023-02-15T05:01:03;77.70;;;22.87;;
66093;SDS011;52876;49.394;10.892;2023-02-15T05:03:30;132.80;;;27.40;;
66093;SDS011;52876;49.394;10.892;2023-02-15T05:05:56;166.02;;;32.78;;
66093;SDS011;52876;49.394;10.892;2023-02-15T05:08:22;109.80;;;28.50;;
66093;SDS011;52876;49.394;10.892;2023-02-15T05:10:50;109.03;;;26.50;;
66093;SDS011;52876;49.394;10.892;2023-02-15T05:13:16;90.22;;;27.90;;
66093;SDS011;52876;49.394;10.892;2023-02-15T05:15:46;85.47;;;25.47;;
66093;SDS011;52876;49.394;10.892;2023-02-15T05:18:12;69.97;;;23.67;;
66093;SDS011;52876;49.394;10.892;2023-02-15T05:20:41;101.83;;;28.17;;
66093;SDS011;52876;49.394;10.892;2023-02-15T05:23:07;101.90;;;30.30;;
66093;SDS011;52876;49.394;10.892;2023-02-15T05:25:33;50.73;;;21.87;;
66093;SDS011;52876;49.394;10.892;2023-02-15T05:27:59;136.17;;;30.57;;
66093;SDS011;52876;49.394;10.892;2023-02-15T05:30:25;94.97;;;27.05;;
66093;SDS011;52876;49.394;10.892;2023-02-15T05:32:51;90.33;;;26.63;;
66093;SDS011;52876;49.394;10.892;2023-02-15T05:35:18;118.03;;;30.80;;
66093;SDS011;52876;49.394;10.892;2023-02-15T05:37:47;52.77;;;21.73;;
66093;SDS011;52876;49.394;10.892;2023-02-15T05:40:13;80.93;;;27.00;;
66093;SDS011;52876;49.394;10.892;2023-02-15T05:42:40;127.40;;;27.97;;
66093;SDS011;52876;49.394;10.892;2023-02-15T05:45:06;79.50;;;26.30;;
66093;SDS011;52876;49.394;10.892;2023-02-15T05:47:34;59.63;;;26.17;;
66093;SDS011;52876;49.394;10.892;2023-02-15T05:50:00;94.73;;;31.40;;
66093;SDS011;52876;49.394;10.892;2023-02-15T05:52:28;108.40;;;28.37;;
66093;SDS011;52876;49.394;10.892;2023-02-15T05:54:55;62.97;;;25.57;;
66093;SDS011;52876;49.394;10.892;2023-02-15T05:57:22;100.07;;;30.95;;
66093;SDS011;52876;49.394;10.892;2023-02-15T05:59:48;75.87;;;28.93;;
66093;SDS011;52876;49.394;10.892;2023-02-15T06:02:16;89.35;;;25.85;;
66093;SDS011;52876;49.394;10.892;2023-02-15T06:04:42;60.77;;;27.40;;
66093;SDS011;52876;49.394;10.892;2023-02-15T06:07:09;113.25;;;29.42;;
66093;SDS011;52876;49.394;10.892;2023-02-15T06:09:35;105.28;;;28.65;;
66093;SDS011;52876;49.394;10.892;2023-02-15T06:12:04;60.38;;;25.17;;
66093;SDS011;52876;49.394;10.892;2023-02-15T06:14:30;77.07;;;25.13;;
66093;SDS011;52876;49.394;10.892;2023-02-15T06:16:56;76.80;;;26.63;;
66093;SDS011;52876;49.394;10.892;2023-02-15T06:19:22;71.10;;;25.07;;
66093;SDS011;52876;49.394;10.892;2023-02-15T06:21:50;76.18;;;25.92;;
66093;SDS011;52876;49.394;10.892;2023-02-15T06:24:15;50.23;;;22.47;;
66093;SDS011;52876;49.394;10.892;2023-02-15T06:26:43;64.30;;;24.23;;
66093;SDS011;52876;49.394;10.892;2023-02-15T06:29:10;54.17;;;23.47;;
66093;SDS011;52876;49.394;10.892;2023-02-15T06:31:37;81.53;;;26.70;;
66093;SDS011;52876;49.394;10.892;2023-02-15T06:34:03;97.67;;;26.20;;
66093;SDS011;52876;49.394;10.892;2023-02-15T06:36:30;53.07;;;19.80;;
66093;SDS011;52876;49.394;10.892;2023-02-15T06:38:56;73.80;;;21.77;;
66093;SDS011;52876;49.394;10.892;2023-02-15T06:41:22;133.97;;;29.30;;
66093;SDS011;52876;49.394;10.892;2023-02-15T06:43:48;81.75;;;24.27;;
66093;SDS011;52876;49.394;10.892;2023-02-15T06:46:17;91.38;;;27.58;;
66093;SDS011;52876;49.394;10.892;2023-02-15T06:48:43;69.47;;;24.75;;
66093;SDS011;52876;49.394;10.892;2023-02-15T06:51:10;105.13;;;28.95;;
66093;SDS011;52876;49.394;10.892;2023-02-15T06:53:36;102.38;;;27.63;;
66093;SDS011;52876;49.394;10.892;2023-02-15T06:56:05;113.90;;;28.63;;
66093;SDS011;52876;49.394;10.892;2023-02-15T06:58:32;134.40;;;24.23;;
66093;SDS011;52876;49.394;10.892;2023-02-15T07:00:58;157.93;;;32.83;;
66093;SDS011;52876;49.394;10.892;2023-02-15T07:03:25;97.57;;;27.20;;
66093;SDS011;52876;49.394;10.892;2023-02-15T07:05:53;93.97;;;24.40;;
66093;SDS011;52876;49.394;10.892;2023-02-15T07:08:19;56.53;;;22.90;;
66093;SDS011;52876;49.394;10.892;2023-02-15T07:10:48;155.00;;;29.63;;
66093;SDS011;52876;49.394;10.892;2023-02-15T07:13:14;57.25;;;25.30;;
66093;SDS011;52876;49.394;10.892;2023-02-15T07:15:41;93.10;;;26.03;;
66093;SDS011;52876;49.394;10.892;2023-02-15T07:18:07;83.37;;;26.87;;
66093;SDS011;52876;49.394;10.892;2023-02-15T07:20:36;71.43;;;24.17;;
66093;SDS011;52876;49.394;10.892;2023-02-15T07:23:03;82.65;;;25.60;;
66093;SDS011;52876;49.394;10.892;2023-02-15T07:25:29;85.90;;;26.60;;
66093;SDS011;52876;49.394;10.892;2023-02-15T07:27:56;63.40;;;22.58;;
66093;SDS011;52876;49.394;10.892;2023-02-15T07:30:23;42.33;;;21.10;;
66093;SDS011;52876;49.394;10.892;2023-02-15T07:32:49;59.13;;;24.47;;
66093;SDS011;52876;49.394;10.892;2023-02-15T07:35:15;42.20;;;20.02;;
66093;SDS011;52876;49.394;10.892;2023-02-15T07:37:44;63.90;;;25.50;;
66093;SDS011;52876;49.394;10.892;2023-02-15T07:40:10;68.03;;;24.73;;
66093;SDS011;52876;49.394;10.892;2023-02-15T07:42:37;42.53;;;20.07;;
66093;SDS011;52876;49.394;10.892;2023-02-15T07:45:04;56.00;;;23.03;;
66093;SDS011;52876;49.394;10.892;2023-02-15T07:47:31;47.80;;;21.57;;
66093;SDS011;52876;49.394;10.892;2023-02-15T07:49:57;47.67;;;20.30;;
66093;SDS011;52876;49.394;10.892;2023-02-15T07:52:25;60.97;;;22.03;;
66093;SDS011;52876;49.394;10.892;2023-02-15T07:54:52;52.13;;;21.93;;
66093;SDS011;52876;49.394;10.892;2023-02-15T07:57:19;97.27;;;25.03;;
66093;SDS011;52876;49.394;10.892;2023-02-15T07:59:45;50.40;;;21.83;;
66093;SDS011;52876;49.394;10.892;2023-02-15T08:02:13;61.60;;;23.93;;
66093;SDS011;52876;49.394;10.892;2023-02-15T08:04:39;43.87;;;20.20;;
66093;SDS011;52876;49.394;10.892;2023-02-15T08:07:06;57.10;;;23.43;;
66093;SDS011;52876;49.394;10.892;2023-02-15T08:09:32;52.27;;;23.20;;
66093;SDS011;52876;49.394;10.892;2023-02-15T08:12:01;45.43;;;21.10;;
66093;SDS011;52876;49.394;10.892;2023-02-15T08:14:27;38.17;;;18.90;;
66093;SDS011;52876;49.394;10.892;2023-02-15T08:16:55;42.40;;;21.77;;
66093;SDS011;52876;49.394;10.892;2023-02-15T08:19:24;35.97;;;19.03;;
66093;SDS011;52876;49.394;10.892;2023-02-15T08:21:53;33.70;;;18.83;;
66093;SDS011;52876;49.394;10.892;2023-02-15T08:24:20;34.13;;;18.80;;
66093;SDS011;52876;49.394;10.892;2023-02-15T08:26:47;38.37;;;20.50;;
66093;SDS011;52876;49.394;10.892;2023-02-15T08:29:16;54.57;;;21.40;;
66093;SDS011;52876;49.394;10.892;2023-02-15T08:31:43;48.47;;;20.13;;
66093;SDS011;52876;49.394;10.892;2023-02-15T08:34:09;38.63;;;19.83;;
66093;SDS011;52876;49.394;10.892;2023-02-15T08:36:37;43.23;;;21.33;;
66093;SDS011;52876;49.394;10.892;2023-02-15T08:39:04;43.97;;;22.83;;
66093;SDS011;52876;49.394;10.892;2023-02-15T08:41:31;33.43;;;19.70;;
66093;SDS011;52876;49.394;10.892;2023-02-15T08:43:58;32.43;;;18.60;;
66093;SDS011;52876;49.394;10.892;2023-02-15T08:46:28;38.77;;;20.03;;
66093;SDS011;52876;49.394;10.892;2023-02-15T08:48:55;38.50;;;20.43;;
66093;SDS011;52876;49.394;10.892;2023-02-15T08:51:23;42.17;;;20.00;;
66093;SDS011;52876;49.394;10.892;2023-02-15T08:53:52;41.13;;;21.00;;
66093;SDS011;52876;49.394;10.892;2023-02-15T08:56:21;37.13;;;20.17;;
66093;SDS011;52876;49.394;10.892;2023-02-15T08:58:49;35.10;;;18.27;;
66093;SDS011;52876;49.394;10.892;2023-02-15T09:01:18;41.17;;;21.70;;
66093;SDS011;52876;49.394;10.892;2023-02-15T09:03:46;34.53;;;20.10;;
66093;SDS011;52876;49.394;10.892;2023-02-15T09:06:15;32.17;;;18.37;;
66093;SDS011;52876;49.394;10.892;2023-02-15T09:08:41;32.03;;;17.00;;
66093;SDS011;52876;49.394;10.892;2023-02-15T09:11:08;31.93;;;18.07;;
66093;SDS011;52876;49.394;10.892;2023-02-15T09:13:36;31.50;;;17.33;;
66093;SDS011;52876;49.394;10.892;2023-02-15T09:16:05;28.77;;;16.87;;
66093;SDS011;52876;49.394;10.892;2023-02-15T09:18:33;30.80;;;17.63;;
66093;SDS011;52876;49.394;10.892;2023-02-15T09:21:06;31.70;;;17.90;;
66093;SDS011;52876;49.394;10.892;2023-02-15T09:23:33;34.90;;;20.57;;
66093;SDS011;52876;49.394;10.892;2023-02-15T09:26:01;30.90;;;18.13;;
66093;SDS011;52876;49.394;10.892;2023-02-15T09:28:28;25.30;;;14.20;;
66093;SDS011;52876;49.394;10.892;2023-02-15T09:30:55;27.27;;;17.13;;
66093;SDS011;52876;49.394;10.892;2023-02-15T09:33:22;28.00;;;16.73;;
66093;SDS011;52876;49.394;10.892;2023-02-15T09:35:48;34.50;;;18.33;;
66093;SDS011;52876;49.394;10.892;2023-02-15T09:38:15;29.80;;;17.73;;
66093;SDS011;52876;49.394;10.892;2023-02-15T09:40:44;24.47;;;15.50;;
66093;SDS011;52876;49.394;10.892;2023-02-15T09:43:26;28.70;;;16.70;;
66093;SDS011;52876;49.394;10.892;2023-02-15T09:46:03;24.67;;;15.70;;
66093;SDS011;52876;49.394;10.892;2023-02-15T09:48:41;28.17;;;16.27;;
66093;SDS011;52876;49.394;10.892;2023-02-15T09:54:12;32.47;;;17.97;;
66093;SDS011;52876;49.394;10.892;2023-02-15T09:56:48;26.73;;;17.90;;
66093;SDS011;52876;49.394;10.892;2023-02-15T09:59:19;32.40;;;17.73;;
66093;SDS011;52876;49.394;10.892;2023-02-15T10:01:54;29.07;;;17.90;;
66093;SDS011;52876;49.394;10.892;2023-02-15T10:04:39;27.07;;;16.33;;
66093;SDS011;52876;49.394;10.892;2023-02-15T10:07:20;27.13;;;16.23;;
66093;SDS011;52876;49.394;10.892;2023-02-15T10:09:58;30.60;;;17.90;;
66093;SDS011;52876;49.394;10.892;2023-02-15T10:12:36;31.43;;;17.73;;
66093;SDS011;52876;49.394;10.892;2023-02-15T10:15:18;32.00;;;17.40;;
66093;SDS011;52876;49.394;10.892;2023-02-15T10:17:56;28.50;;;17.30;;
66093;SDS011;52876;49.394;10.892;2023-02-15T10:20:50;27.67;;;16.03;;
66093;SDS011;52876;49.394;10.892;2023-02-15T10:23:25;30.00;;;17.87;;
66093;SDS011;52876;49.394;10.892;2023-02-15T10:26:12;31.77;;;19.13;;
66093;SDS011;52876;49.394;10.892;2023-02-15T10:28:43;34.23;;;19.23;;
66093;SDS011;52876;49.394;10.892;2023-02-15T10:31:15;39.80;;;20.23;;
66093;SDS011;52876;49.394;10.892;2023-02-15T10:33:47;33.57;;;17.60;;
66093;SDS011;52876;49.394;10.892;2023-02-15T10:36:26;30.30;;;18.33;;
66093;SDS011;52876;49.394;10.892;2023-02-15T10:39:02;35.83;;;20.43;;
66093;SDS011;52876;49.394;10.892;2023-02-15T10:41:36;35.60;;;20.17;;
66093;SDS011;52876;49.394;10.892;2023-02-15T10:44:10;37.60;;;20.23;;
66093;SDS011;52876;49.394;10.892;2023-02-15T10:46:54;35.07;;;19.90;;
66093;SDS011;52876;49.394;10.892;2023-02-15T10:49:33;39.47;;;21.53;;
66093;SDS011;52876;49.394;10.892;2023-02-15T10:52:10;42.70;;;24.30;;
66093;SDS011;52876;49.394;10.892;2023-02-15T10:54:48;40.03;;;21.60;;
66093;SDS011;52876;49.394;10.892;2023-02-15T10:57:23;36.87;;;21.63;;
66093;SDS011;52876;49.394;10.892;2023-02-15T11:00:01;36.03;;;20.53;;
66093;SDS011;52876;49.394;10.892;2023-02-15T11:02:36;33.07;;;21.87;;
66093;SDS011;52876;49.394;10.892;2023-02-15T11:05:25;42.47;;;21.07;;
66093;SDS011;52876;49.394;10.892;2023-02-15T11:08:00;32.43;;;19.40;;
66093;SDS011;52876;49.394;10.892;2023-02-15T11:10:32;42.63;;;23.50;;
66093;SDS011;52876;49.394;10.892;2023-02-15T11:13:05;37.10;;;20.93;;
66093;SDS011;52876;49.394;10.892;2023-02-15T11:15:37;33.50;;;19.33;;
66093;SDS011;52876;49.394;10.892;2023-02-15T11:18:09;37.27;;;21.07;;
66093;SDS011;52876;49.394;10.892;2023-02-15T11:20:41;34.97;;;20.40;;
66093;SDS011;52876;49.394;10.892;2023-02-15T11:23:13;36.03;;;21.63;;
66093;SDS011;52876;49.394;10.892;2023-02-15T11:25:41;38.80;;;22.30;;
66093;SDS011;52876;49.394;10.892;2023-02-15T11:28:15;35.10;;;21.30;;
66093;SDS011;52876;49.394;10.892;2023-02-15T11:30:47;37.13;;;22.33;;
66093;SDS011;52876;49.394;10.892;2023-02-15T11:33:16;47.70;;;23.13;;
66093;SDS011;52876;49.394;10.892;2023-02-15T11:35:47;46.87;;;22.83;;
66093;SDS011;52876;49.394;10.892;2023-02-15T11:38:17;75.83;;;30.53;;
66093;SDS011;52876;49.394;10.892;2023-02-15T11:40:46;78.30;;;29.13;;
66093;SDS011;52876;49.394;10.892;2023-02-15T11:43:15;94.00;;;34.53;;
66093;SDS011;52876;49.394;10.892;2023-02-15T11:45:45;59.23;;;25.13;;
66093;SDS011;52876;49.394;10.892;2023-02-15T11:48:12;47.37;;;24.70;;
66093;SDS011;52876;49.394;10.892;2023-02-15T11:50:43;47.27;;;23.80;;
66093;SDS011;52876;49.394;10.892;2023-02-15T11:53:10;44.57;;;23.10;;
66093;SDS011;52876;49.394;10.892;2023-02-15T11:55:41;33.83;;;20.23;;
66093;SDS011;52876;49.394;10.892;2023-02-15T11:58:14;34.80;;;21.77;;
66093;SDS011;52876;49.394;10.892;2023-02-15T12:00:49;40.70;;;22.93;;
66093;SDS011;52876;49.394;10.892;2023-02-15T12:03:18;45.07;;;24.63;;
66093;SDS011;52876;49.394;10.892;2023-02-15T12:05:49;42.93;;;23.43;;
66093;SDS011;52876;49.394;10.892;2023-02-15T12:08:21;30.47;;;18.97;;
66093;SDS011;52876;49.394;10.892;2023-02-15T12:11:00;27.77;;;17.90;;
66093;SDS011;52876;49.394;10.892;2023-02-15T12:13:32;29.63;;;19.90;;
66093;SDS011;52876;49.394;10.892;2023-02-15T12:15:58;29.00;;;18.40;;
66093;SDS011;52876;49.394;10.892;2023-02-15T12:18:33;33.27;;;20.03;;
66093;SDS011;52876;49.394;10.892;2023-02-15T12:21:02;30.00;;;19.40;;
66093;SDS011;52876;49.394;10.892;2023-02-15T12:23:30;30.37;;;19.50;;
66093;SDS011;52876;49.394;10.892;2023-02-15T12:25:57;30.97;;;19.40;;
66093;SDS011;52876;49.394;10.892;2023-02-15T12:28:25;52.00;;;25.30;;
66093;SDS011;52876;49.394;10.892;2023-02-15T12:30:56;32.33;;;20.80;;
66093;SDS011;52876;49.394;10.892;2023-02-15T12:33:25;47.50;;;24.60;;
66093;SDS011;52876;49.394;10.892;2023-02-15T12:35:57;39.07;;;23.50;;
66093;SDS011;52876;49.394;10.892;2023-02-15T12:38:26;44.10;;;25.47;;
66093;SDS011;52876;49.394;10.892;2023-02-15T12:40:56;42.57;;;23.60;;
66093;SDS011;52876;49.394;10.892;2023-02-15T12:43:27;36.57;;;21.33;;
66093;SDS011;52876;49.394;10.892;2023-02-15T12:48:52;26.23;;;18.00;;
66093;SDS011;52876;49.394;10.892;2023-02-15T12:51:30;24.60;;;17.23;;
66093;SDS011;52876;49.394;10.892;2023-02-15T12:53:56;27.03;;;18.00;;
66093;SDS011;52876;49.394;10.892;2023-02-15T12:56:25;28.33;;;18.53;;
66093;SDS011;52876;49.394;10.892;2023-02-15T12:58:52;27.03;;;17.60;;
66093;SDS011;52876;49.394;10.892;2023-02-15T13:01:31;29.73;;;20.03;;
66093;SDS011;52876;49.394;10.892;2023-02-15T13:03:59;32.87;;;20.17;;
66093;SDS011;52876;49.394;10.892;2023-02-15T13:06:27;26.60;;;18.10;;
66093;SDS011;52876;49.394;10.892;2023-02-15T13:08:55;56.53;;;23.80;;
66093;SDS011;52876;49.394;10.892;2023-02-15T13:11:22;64.43;;;24.23;;
66093;SDS011;52876;49.394;10.892;2023-02-15T13:13:51;72.83;;;25.50;;
66093;SDS011;52876;49.394;10.892;2023-02-15T13:16:20;24.83;;;17.13;;
66093;SDS011;52876;49.394;10.892;2023-02-15T13:18:53;25.03;;;17.80;;
66093;SDS011;52876;49.394;10.892;2023-02-15T13:21:23;25.20;;;17.33;;
66093;SDS011;52876;49.394;10.892;2023-02-15T13:23:51;23.00;;;17.33;;
66093;SDS011;52876;49.394;10.892;2023-02-15T13:26:23;24.47;;;17.37;;
66093;SDS011;52876;49.394;10.892;2023-02-15T13:28:55;22.50;;;16.97;;
66093;SDS011;52876;49.394;10.892;2023-02-15T13:31:24;22.90;;;19.00;;
66093;SDS011;52876;49.394;10.892;2023-02-15T13:33:54;20.27;;;16.50;;
66093;SDS011;52876;49.394;10.892;2023-02-15T13:36:29;21.17;;;16.83;;
66093;SDS011;52876;49.394;10.892;2023-02-15T13:39:02;24.77;;;18.33;;
66093;SDS011;52876;49.394;10.892;2023-02-15T13:41:37;25.13;;;19.53;;
66093;SDS011;52876;49.394;10.892;2023-02-15T13:44:15;23.83;;;18.30;;
66093;SDS011;52876;49.394;10.892;2023-02-15T13:46:57;24.60;;;18.90;;
66093;SDS011;52876;49.394;10.892;2023-02-15T13:49:31;37.07;;;21.60;;
66093;SDS011;52876;49.394;10.892;2023-02-15T13:52:16;32.30;;;22.07;;
66093;SDS011;52876;49.394;10.892;2023-02-15T13:54:48;46.57;;;22.90;;
66093;SDS011;52876;49.394;10.892;2023-02-15T13:57:40;40.30;;;23.00;;
66093;SDS011;52876;49.394;10.892;2023-02-15T14:00:12;38.73;;;21.73;;
66093;SDS011;52876;49.394;10.892;2023-02-15T14:02:49;73.60;;;28.33;;
66093;SDS011;52876;49.394;10.892;2023-02-15T14:05:23;49.93;;;23.00;;
66093;SDS011;52876;49.394;10.892;2023-02-15T14:07:57;50.13;;;21.40;;
66093;SDS011;52876;49.394;10.892;2023-02-15T14:10:27;40.30;;;20.77;;
66093;SDS011;52876;49.394;10.892;2023-02-15T14:15:38;59.50;;;26.77;;
66093;SDS011;52876;49.394;10.892;2023-02-15T14:18:12;34.43;;;21.03;;
66093;SDS011;52876;49.394;10.892;2023-02-15T14:20:47;35.73;;;22.20;;
66093;SDS011;52876;49.394;10.892;2023-02-15T14:23:20;32.27;;;21.13;;
66093;SDS011;52876;49.394;10.892;2023-02-15T14:25:55;37.73;;;20.53;;
66093;SDS011;52876;49.394;10.892;2023-02-15T14:28:24;37.03;;;21.80;;